sensor_id;sensor_type;location;lat;lon;timestamp;P1;durP1;ratioP1;P2;durP2;ratioP2
76850;SDS011;65824;43.726;20.692;2023-04-25T00:00:26;3.63;;;1.77;;
76850;SDS011;65824;43.726;20.692;2023-04-25T00:02:53;3.22;;;1.30;;
76850;SDS011;65824;43.726;20.692;2023-04-25T00:05:20;3.63;;;1.70;;
76850;SDS011;65824;43.726;20.692;2023-04-25T00:07:48;2.92;;;1.10;;
76850;SDS011;65824;43.726;20.692;2023-04-25T00:10:15;2.85;;;1.02;;
76850;SDS011;65824;43.726;20.692;2023-04-25T00:12:40;3.00;;;1.20;;
76850;SDS011;65824;43.726;20.692;2023-04-25T00:15:06;2.88;;;0.90;;
76850;SDS011;65824;43.726;20.692;2023-04-25T00:17:32;2.42;;;0.98;;
76850;SDS011;65824;43.726;20.692;2023-04-25T00:20:00;2.70;;;1.02;;
76850;SDS011;65824;43.726;20.692;2023-04-25T00:22:25;2.65;;;0.90;;
76850;SDS011;65824;43.726;20.692;2023-04-25T00:24:52;4.75;;;1.13;;
76850;SDS011;65824;43.726;20.692;2023-04-25T00:27:18;3.05;;;0.90;;
76850;SDS011;65824;43.726;20.692;2023-04-25T00:29:44;2.25;;;0.80;;
76850;SDS011;65824;43.726;20.692;2023-04-25T00:32:09;3.53;;;1.08;;
76850;SDS011;65824;43.726;20.692;2023-04-25T00:34:35;3.97;;;1.00;;
76850;SDS011;65824;43.726;20.692;2023-04-25T00:37:01;2.47;;;0.82;;
76850;SDS011;65824;43.726;20.692;2023-04-25T00:39:29;2.22;;;1.00;;
76850;SDS011;65824;43.726;20.692;2023-04-25T00:41:55;3.53;;;0.90;;
76850;SDS011;65824;43.726;20.692;2023-04-25T00:44:21;2.47;;;1.00;;
76850;SDS011;65824;43.726;20.692;2023-04-25T00:46:47;2.50;;;0.95;;
76850;SDS011;65824;43.726;20.692;2023-04-25T00:49:14;2.40;;;0.90;;
76850;SDS011;65824;43.726;20.692;2023-04-25T00:51:42;3.90;;;1.05;;
76850;SDS011;65824;43.726;20.692;2023-04-25T00:54:10;3.22;;;0.88;;
76850;SDS011;65824;43.726;20.692;2023-04-25T00:56:37;2.75;;;0.90;;
76850;SDS011;65824;43.726;20.692;2023-04-25T00:59:05;2.60;;;1.10;;
76850;SDS011;65824;43.726;20.692;2023-04-25T01:01:30;2.85;;;1.00;;
76850;SDS011;65824;43.726;20.692;2023-04-25T01:03:56;3.33;;;1.38;;
76850;SDS011;65824;43.726;20.692;2023-04-25T01:06:23;2.95;;;1.00;;
76850;SDS011;65824;43.726;20.692;2023-04-25T01:08:49;5.07;;;2.20;;
76850;SDS011;65824;43.726;20.692;2023-04-25T01:11:16;4.13;;;1.90;;
76850;SDS011;65824;43.726;20.692;2023-04-25T01:13:41;3.03;;;1.30;;
76850;SDS011;65824;43.726;20.692;2023-04-25T01:16:07;4.07;;;1.80;;
76850;SDS011;65824;43.726;20.692;2023-04-25T01:18:36;5.45;;;2.03;;
76850;SDS011;65824;43.726;20.692;2023-04-25T01:21:11;4.22;;;1.58;;
76850;SDS011;65824;43.726;20.692;2023-04-25T01:23:38;4.00;;;1.60;;
76850;SDS011;65824;43.726;20.692;2023-04-25T01:26:06;2.65;;;1.30;;
76850;SDS011;65824;43.726;20.692;2023-04-25T01:28:33;3.40;;;1.45;;
76850;SDS011;65824;43.726;20.692;2023-04-25T01:30:59;4.50;;;1.83;;
76850;SDS011;65824;43.726;20.692;2023-04-25T01:33:24;6.70;;;1.90;;
76850;SDS011;65824;43.726;20.692;2023-04-25T01:35:50;5.20;;;2.60;;
76850;SDS011;65824;43.726;20.692;2023-04-25T01:38:15;6.03;;;2.75;;
76850;SDS011;65824;43.726;20.692;2023-04-25T01:40:41;4.70;;;2.50;;
76850;SDS011;65824;43.726;20.692;2023-04-25T01:43:10;6.00;;;2.83;;
76850;SDS011;65824;43.726;20.692;2023-04-25T01:45:37;6.72;;;3.05;;
76850;SDS011;65824;43.726;20.692;2023-04-25T01:48:06;10.65;;;5.95;;
76850;SDS011;65824;43.726;20.692;2023-04-25T01:50:32;6.65;;;3.42;;
76850;SDS011;65824;43.726;20.692;2023-04-25T01:52:58;8.13;;;3.63;;
76850;SDS011;65824;43.726;20.692;2023-04-25T01:55:26;7.10;;;3.95;;
76850;SDS011;65824;43.726;20.692;2023-04-25T01:57:52;6.88;;;3.50;;
76850;SDS011;65824;43.726;20.692;2023-04-25T02:00:19;6.13;;;3.17;;
76850;SDS011;65824;43.726;20.692;2023-04-25T02:02:45;8.68;;;3.38;;
76850;SDS011;65824;43.726;20.692;2023-04-25T02:05:11;7.72;;;3.30;;
76850;SDS011;65824;43.726;20.692;2023-04-25T02:07:36;5.55;;;2.88;;
76850;SDS011;65824;43.726;20.692;2023-04-25T02:10:02;6.22;;;3.05;;
76850;SDS011;65824;43.726;20.692;2023-04-25T02:12:28;7.30;;;2.78;;
76850;SDS011;65824;43.726;20.692;2023-04-25T02:14:54;5.55;;;2.92;;
76850;SDS011;65824;43.726;20.692;2023-04-25T02:17:19;7.00;;;3.05;;
76850;SDS011;65824;43.726;20.692;2023-04-25T02:19:47;11.25;;;3.00;;
76850;SDS011;65824;43.726;20.692;2023-04-25T02:22:12;6.65;;;3.17;;
76850;SDS011;65824;43.726;20.692;2023-04-25T02:24:38;6.82;;;3.20;;
76850;SDS011;65824;43.726;20.692;2023-04-25T02:27:03;4.55;;;2.63;;
76850;SDS011;65824;43.726;20.692;2023-04-25T02:29:29;6.75;;;2.90;;
76850;SDS011;65824;43.726;20.692;2023-04-25T02:31:55;4.32;;;2.50;;
76850;SDS011;65824;43.726;20.692;2023-04-25T02:34:20;5.47;;;2.30;;
76850;SDS011;65824;43.726;20.692;2023-04-25T02:36:47;5.35;;;1.83;;
76850;SDS011;65824;43.726;20.692;2023-04-25T02:39:13;4.60;;;1.85;;
76850;SDS011;65824;43.726;20.692;2023-04-25T02:41:39;4.20;;;2.10;;
76850;SDS011;65824;43.726;20.692;2023-04-25T02:44:04;3.30;;;1.30;;
76850;SDS011;65824;43.726;20.692;2023-04-25T02:46:30;6.75;;;1.58;;
76850;SDS011;65824;43.726;20.692;2023-04-25T02:48:55;3.97;;;1.50;;
76850;SDS011;65824;43.726;20.692;2023-04-25T02:51:21;3.63;;;1.40;;
76850;SDS011;65824;43.726;20.692;2023-04-25T02:53:47;4.20;;;1.60;;
76850;SDS011;65824;43.726;20.692;2023-04-25T02:56:14;5.47;;;1.92;;
76850;SDS011;65824;43.726;20.692;2023-04-25T02:58:42;8.68;;;3.63;;
76850;SDS011;65824;43.726;20.692;2023-04-25T03:01:08;10.52;;;4.07;;
76850;SDS011;65824;43.726;20.692;2023-04-25T03:03:33;7.28;;;4.45;;
76850;SDS011;65824;43.726;20.692;2023-04-25T03:06:00;6.50;;;3.47;;
76850;SDS011;65824;43.726;20.692;2023-04-25T03:08:26;11.68;;;3.92;;
76850;SDS011;65824;43.726;20.692;2023-04-25T03:10:57;10.55;;;4.30;;
76850;SDS011;65824;43.726;20.692;2023-04-25T03:13:25;7.47;;;3.42;;
76850;SDS011;65824;43.726;20.692;2023-04-25T03:15:53;6.85;;;3.70;;
76850;SDS011;65824;43.726;20.692;2023-04-25T03:18:19;7.05;;;3.70;;
76850;SDS011;65824;43.726;20.692;2023-04-25T03:20:44;7.43;;;3.90;;
76850;SDS011;65824;43.726;20.692;2023-04-25T03:23:10;8.75;;;3.83;;
76850;SDS011;65824;43.726;20.692;2023-04-25T03:25:37;6.50;;;3.22;;
76850;SDS011;65824;43.726;20.692;2023-04-25T03:28:02;5.68;;;3.05;;
76850;SDS011;65824;43.726;20.692;2023-04-25T03:30:28;5.25;;;2.75;;
76850;SDS011;65824;43.726;20.692;2023-04-25T03:32:53;5.65;;;2.70;;
76850;SDS011;65824;43.726;20.692;2023-04-25T03:35:19;5.63;;;2.88;;
76850;SDS011;65824;43.726;20.692;2023-04-25T03:37:45;5.15;;;3.00;;
76850;SDS011;65824;43.726;20.692;2023-04-25T03:40:12;6.50;;;2.90;;
76850;SDS011;65824;43.726;20.692;2023-04-25T03:42:37;6.80;;;2.95;;
76850;SDS011;65824;43.726;20.692;2023-04-25T03:45:03;7.90;;;3.70;;
76850;SDS011;65824;43.726;20.692;2023-04-25T03:47:30;5.22;;;2.83;;
76850;SDS011;65824;43.726;20.692;2023-04-25T03:49:56;5.72;;;2.63;;
76850;SDS011;65824;43.726;20.692;2023-04-25T03:52:21;5.00;;;2.50;;
76850;SDS011;65824;43.726;20.692;2023-04-25T03:54:47;4.47;;;2.50;;
76850;SDS011;65824;43.726;20.692;2023-04-25T03:57:13;4.20;;;2.50;;
76850;SDS011;65824;43.726;20.692;2023-04-25T03:59:39;6.38;;;3.10;;
76850;SDS011;65824;43.726;20.692;2023-04-25T04:02:05;7.53;;;3.38;;
76850;SDS011;65824;43.726;20.692;2023-04-25T04:04:31;7.18;;;3.30;;
76850;SDS011;65824;43.726;20.692;2023-04-25T04:06:57;7.63;;;3.38;;
76850;SDS011;65824;43.726;20.692;2023-04-25T04:09:22;6.45;;;3.15;;
76850;SDS011;65824;43.726;20.692;2023-04-25T04:11:48;6.07;;;3.30;;
76850;SDS011;65824;43.726;20.692;2023-04-25T04:14:13;6.07;;;3.20;;
76850;SDS011;65824;43.726;20.692;2023-04-25T04:16:41;5.32;;;3.05;;
76850;SDS011;65824;43.726;20.692;2023-04-25T04:19:08;6.22;;;2.80;;
76850;SDS011;65824;43.726;20.692;2023-04-25T04:21:33;4.25;;;2.00;;
76850;SDS011;65824;43.726;20.692;2023-04-25T04:23:59;5.00;;;2.25;;
76850;SDS011;65824;43.726;20.692;2023-04-25T04:26:25;4.70;;;2.30;;
76850;SDS011;65824;43.726;20.692;2023-04-25T04:28:51;4.20;;;2.58;;
76850;SDS011;65824;43.726;20.692;2023-04-25T04:31:19;6.97;;;2.53;;
76850;SDS011;65824;43.726;20.692;2023-04-25T04:33:49;8.23;;;2.92;;
76850;SDS011;65824;43.726;20.692;2023-04-25T04:36:14;6.30;;;2.88;;
76850;SDS011;65824;43.726;20.692;2023-04-25T04:38:40;6.90;;;3.40;;
76850;SDS011;65824;43.726;20.692;2023-04-25T04:41:07;5.95;;;3.88;;
76850;SDS011;65824;43.726;20.692;2023-04-25T04:43:33;8.18;;;4.13;;
76850;SDS011;65824;43.726;20.692;2023-04-25T04:46:00;6.88;;;3.45;;
76850;SDS011;65824;43.726;20.692;2023-04-25T04:48:26;6.43;;;3.15;;
76850;SDS011;65824;43.726;20.692;2023-04-25T04:50:53;6.82;;;3.53;;
76850;SDS011;65824;43.726;20.692;2023-04-25T04:53:18;5.47;;;3.10;;
76850;SDS011;65824;43.726;20.692;2023-04-25T04:55:45;8.63;;;4.20;;
76850;SDS011;65824;43.726;20.692;2023-04-25T04:58:11;10.20;;;4.47;;
76850;SDS011;65824;43.726;20.692;2023-04-25T05:00:37;8.30;;;4.50;;
76850;SDS011;65824;43.726;20.692;2023-04-25T05:03:03;16.77;;;7.60;;
76850;SDS011;65824;43.726;20.692;2023-04-25T05:05:30;25.25;;;11.30;;
76850;SDS011;65824;43.726;20.692;2023-04-25T05:07:57;35.58;;;14.32;;
76850;SDS011;65824;43.726;20.692;2023-04-25T05:10:22;25.25;;;11.45;;
76850;SDS011;65824;43.726;20.692;2023-04-25T05:12:48;15.07;;;7.20;;
76850;SDS011;65824;43.726;20.692;2023-04-25T05:15:14;14.32;;;7.00;;
76850;SDS011;65824;43.726;20.692;2023-04-25T05:17:39;17.90;;;7.85;;
76850;SDS011;65824;43.726;20.692;2023-04-25T05:20:07;11.95;;;5.95;;
76850;SDS011;65824;43.726;20.692;2023-04-25T05:22:34;11.70;;;6.38;;
76850;SDS011;65824;43.726;20.692;2023-04-25T05:25:00;11.52;;;6.10;;
76850;SDS011;65824;43.726;20.692;2023-04-25T05:27:27;12.68;;;6.20;;
76850;SDS011;65824;43.726;20.692;2023-04-25T05:29:53;10.15;;;5.53;;
76850;SDS011;65824;43.726;20.692;2023-04-25T05:32:20;11.80;;;5.90;;
76850;SDS011;65824;43.726;20.692;2023-04-25T05:34:46;9.40;;;6.07;;
76850;SDS011;65824;43.726;20.692;2023-04-25T05:37:11;11.13;;;5.90;;
76850;SDS011;65824;43.726;20.692;2023-04-25T05:39:36;11.05;;;5.68;;
76850;SDS011;65824;43.726;20.692;2023-04-25T05:42:02;9.32;;;5.38;;
76850;SDS011;65824;43.726;20.692;2023-04-25T05:44:28;9.77;;;5.97;;
76850;SDS011;65824;43.726;20.692;2023-04-25T05:46:56;9.75;;;5.93;;
76850;SDS011;65824;43.726;20.692;2023-04-25T05:49:22;10.68;;;6.57;;
76850;SDS011;65824;43.726;20.692;2023-04-25T05:51:47;10.27;;;6.20;;
76850;SDS011;65824;43.726;20.692;2023-04-25T05:54:13;10.02;;;6.25;;
76850;SDS011;65824;43.726;20.692;2023-04-25T05:56:38;11.13;;;6.30;;
76850;SDS011;65824;43.726;20.692;2023-04-25T05:59:04;11.63;;;6.20;;
76850;SDS011;65824;43.726;20.692;2023-04-25T06:01:31;10.80;;;6.30;;
76850;SDS011;65824;43.726;20.692;2023-04-25T06:03:57;10.32;;;6.43;;
76850;SDS011;65824;43.726;20.692;2023-04-25T06:06:23;12.60;;;6.90;;
76850;SDS011;65824;43.726;20.692;2023-04-25T06:08:48;14.18;;;7.47;;
76850;SDS011;65824;43.726;20.692;2023-04-25T06:11:14;13.95;;;7.53;;
76850;SDS011;65824;43.726;20.692;2023-04-25T06:13:39;13.15;;;7.30;;
76850;SDS011;65824;43.726;20.692;2023-04-25T06:16:05;8.57;;;5.25;;
76850;SDS011;65824;43.726;20.692;2023-04-25T06:18:32;11.23;;;6.13;;
76850;SDS011;65824;43.726;20.692;2023-04-25T06:20:58;10.35;;;5.53;;
76850;SDS011;65824;43.726;20.692;2023-04-25T06:23:24;10.05;;;4.20;;
76850;SDS011;65824;43.726;20.692;2023-04-25T06:25:50;9.02;;;4.65;;
76850;SDS011;65824;43.726;20.692;2023-04-25T06:28:15;11.52;;;5.07;;
76850;SDS011;65824;43.726;20.692;2023-04-25T06:30:41;11.55;;;5.22;;
76850;SDS011;65824;43.726;20.692;2023-04-25T06:33:07;9.73;;;4.97;;
76850;SDS011;65824;43.726;20.692;2023-04-25T06:35:33;10.00;;;4.50;;
76850;SDS011;65824;43.726;20.692;2023-04-25T06:37:59;6.07;;;3.92;;
76850;SDS011;65824;43.726;20.692;2023-04-25T06:40:25;7.90;;;4.22;;
76850;SDS011;65824;43.726;20.692;2023-04-25T06:42:50;7.28;;;4.30;;
76850;SDS011;65824;43.726;20.692;2023-04-25T06:45:17;6.43;;;3.80;;
76850;SDS011;65824;43.726;20.692;2023-04-25T06:47:44;6.15;;;3.95;;
76850;SDS011;65824;43.726;20.692;2023-04-25T06:50:09;12.63;;;5.30;;
76850;SDS011;65824;43.726;20.692;2023-04-25T06:52:38;10.02;;;5.70;;
76850;SDS011;65824;43.726;20.692;2023-04-25T06:55:05;9.55;;;5.38;;
76850;SDS011;65824;43.726;20.692;2023-04-25T06:57:32;9.18;;;5.72;;
76850;SDS011;65824;43.726;20.692;2023-04-25T06:59:58;11.32;;;6.45;;
76850;SDS011;65824;43.726;20.692;2023-04-25T07:02:23;8.98;;;5.35;;
76850;SDS011;65824;43.726;20.692;2023-04-25T07:04:52;5.63;;;3.40;;
76850;SDS011;65824;43.726;20.692;2023-04-25T07:07:18;6.65;;;3.17;;
76850;SDS011;65824;43.726;20.692;2023-04-25T07:09:43;7.50;;;3.38;;
76850;SDS011;65824;43.726;20.692;2023-04-25T07:12:09;5.63;;;3.00;;
76850;SDS011;65824;43.726;20.692;2023-04-25T07:14:35;5.45;;;2.60;;
76850;SDS011;65824;43.726;20.692;2023-04-25T07:17:01;4.93;;;2.58;;
76850;SDS011;65824;43.726;20.692;2023-04-25T07:19:27;4.90;;;2.22;;
76850;SDS011;65824;43.726;20.692;2023-04-25T07:21:54;3.53;;;1.80;;
76850;SDS011;65824;43.726;20.692;2023-04-25T07:24:20;5.00;;;1.85;;
76850;SDS011;65824;43.726;20.692;2023-04-25T07:26:47;3.75;;;1.90;;
76850;SDS011;65824;43.726;20.692;2023-04-25T07:29:13;3.95;;;2.20;;
76850;SDS011;65824;43.726;20.692;2023-04-25T07:31:39;4.43;;;2.08;;
76850;SDS011;65824;43.726;20.692;2023-04-25T07:34:05;3.60;;;2.00;;
76850;SDS011;65824;43.726;20.692;2023-04-25T07:36:32;6.30;;;2.28;;
76850;SDS011;65824;43.726;20.692;2023-04-25T07:38:57;4.55;;;2.30;;
76850;SDS011;65824;43.726;20.692;2023-04-25T07:41:23;4.78;;;2.88;;
76850;SDS011;65824;43.726;20.692;2023-04-25T07:43:50;8.80;;;3.08;;
76850;SDS011;65824;43.726;20.692;2023-04-25T07:46:15;6.57;;;3.05;;
76850;SDS011;65824;43.726;20.692;2023-04-25T07:48:42;6.40;;;2.90;;
76850;SDS011;65824;43.726;20.692;2023-04-25T07:51:08;5.97;;;2.58;;
76850;SDS011;65824;43.726;20.692;2023-04-25T07:53:34;3.50;;;1.80;;
76850;SDS011;65824;43.726;20.692;2023-04-25T07:56:00;4.72;;;2.10;;
76850;SDS011;65824;43.726;20.692;2023-04-25T07:58:26;3.55;;;2.00;;
76850;SDS011;65824;43.726;20.692;2023-04-25T08:00:51;4.15;;;2.15;;
76850;SDS011;65824;43.726;20.692;2023-04-25T08:03:17;5.45;;;2.90;;
76850;SDS011;65824;43.726;20.692;2023-04-25T08:05:43;5.93;;;2.15;;
76850;SDS011;65824;43.726;20.692;2023-04-25T08:08:08;5.53;;;1.90;;
76850;SDS011;65824;43.726;20.692;2023-04-25T08:10:34;3.63;;;2.28;;
76850;SDS011;65824;43.726;20.692;2023-04-25T08:13:00;3.88;;;1.75;;
76850;SDS011;65824;43.726;20.692;2023-04-25T08:15:26;3.47;;;1.90;;
76850;SDS011;65824;43.726;20.692;2023-04-25T08:17:51;4.13;;;1.80;;
76850;SDS011;65824;43.726;20.692;2023-04-25T08:20:17;4.88;;;1.90;;
76850;SDS011;65824;43.726;20.692;2023-04-25T08:22:43;3.20;;;1.70;;
76850;SDS011;65824;43.726;20.692;2023-04-25T08:25:10;3.67;;;1.75;;
76850;SDS011;65824;43.726;20.692;2023-04-25T08:27:36;3.90;;;1.95;;
76850;SDS011;65824;43.726;20.692;2023-04-25T08:30:02;4.10;;;1.80;;
76850;SDS011;65824;43.726;20.692;2023-04-25T08:32:29;4.47;;;2.20;;
76850;SDS011;65824;43.726;20.692;2023-04-25T08:34:55;4.90;;;2.83;;
76850;SDS011;65824;43.726;20.692;2023-04-25T08:37:20;4.68;;;2.33;;
76850;SDS011;65824;43.726;20.692;2023-04-25T08:39:46;4.50;;;2.50;;
76850;SDS011;65824;43.726;20.692;2023-04-25T08:42:17;5.60;;;2.83;;
76850;SDS011;65824;43.726;20.692;2023-04-25T08:44:44;4.68;;;2.50;;
76850;SDS011;65824;43.726;20.692;2023-04-25T08:47:11;6.80;;;3.83;;
76850;SDS011;65824;43.726;20.692;2023-04-25T08:49:38;5.43;;;3.00;;
76850;SDS011;65824;43.726;20.692;2023-04-25T08:52:05;4.70;;;2.70;;
76850;SDS011;65824;43.726;20.692;2023-04-25T08:54:31;5.82;;;3.20;;
76850;SDS011;65824;43.726;20.692;2023-04-25T08:57:00;5.38;;;3.05;;
76850;SDS011;65824;43.726;20.692;2023-04-25T08:59:30;4.75;;;2.60;;
76850;SDS011;65824;43.726;20.692;2023-04-25T09:01:58;5.10;;;2.80;;
76850;SDS011;65824;43.726;20.692;2023-04-25T09:04:25;4.03;;;2.50;;
76850;SDS011;65824;43.726;20.692;2023-04-25T09:06:51;7.60;;;2.85;;
76850;SDS011;65824;43.726;20.692;2023-04-25T09:09:16;4.72;;;2.42;;
76850;SDS011;65824;43.726;20.692;2023-04-25T09:11:43;4.03;;;2.60;;
76850;SDS011;65824;43.726;20.692;2023-04-25T09:14:16;4.53;;;2.67;;
76850;SDS011;65824;43.726;20.692;2023-04-25T09:19:24;6.90;;;2.42;;
76850;SDS011;65824;43.726;20.692;2023-04-25T09:21:55;5.25;;;2.75;;
76850;SDS011;65824;43.726;20.692;2023-04-25T09:24:56;4.93;;;2.83;;
76850;SDS011;65824;43.726;20.692;2023-04-25T09:27:19;7.60;;;3.80;;
76850;SDS011;65824;43.726;20.692;2023-04-25T09:29:56;6.68;;;3.33;;
76850;SDS011;65824;43.726;20.692;2023-04-25T09:32:24;5.05;;;3.22;;
76850;SDS011;65824;43.726;20.692;2023-04-25T09:34:54;6.40;;;3.67;;
76850;SDS011;65824;43.726;20.692;2023-04-25T09:37:28;6.20;;;3.20;;
76850;SDS011;65824;43.726;20.692;2023-04-25T09:39:55;6.60;;;3.30;;
76850;SDS011;65824;43.726;20.692;2023-04-25T09:42:23;7.50;;;3.40;;
76850;SDS011;65824;43.726;20.692;2023-04-25T09:44:52;7.72;;;3.00;;
76850;SDS011;65824;43.726;20.692;2023-04-25T09:47:24;5.93;;;2.97;;
76850;SDS011;65824;43.726;20.692;2023-04-25T09:49:53;4.75;;;2.85;;
76850;SDS011;65824;43.726;20.692;2023-04-25T09:52:19;4.97;;;3.10;;
76850;SDS011;65824;43.726;20.692;2023-04-25T09:54:50;6.68;;;3.28;;
76850;SDS011;65824;43.726;20.692;2023-04-25T09:57:20;4.90;;;2.88;;
76850;SDS011;65824;43.726;20.692;2023-04-25T09:59:49;6.30;;;3.10;;
76850;SDS011;65824;43.726;20.692;2023-04-25T10:02:17;6.03;;;2.75;;
76850;SDS011;65824;43.726;20.692;2023-04-25T10:04:50;6.88;;;3.30;;
76850;SDS011;65824;43.726;20.692;2023-04-25T10:07:23;6.40;;;3.13;;
76850;SDS011;65824;43.726;20.692;2023-04-25T10:09:58;7.53;;;3.63;;
76850;SDS011;65824;43.726;20.692;2023-04-25T10:12:38;5.45;;;3.53;;
76850;SDS011;65824;43.726;20.692;2023-04-25T10:15:05;9.25;;;3.33;;
76850;SDS011;65824;43.726;20.692;2023-04-25T10:17:33;5.55;;;3.55;;
76850;SDS011;65824;43.726;20.692;2023-04-25T10:20:00;7.88;;;3.60;;
76850;SDS011;65824;43.726;20.692;2023-04-25T10:22:42;10.50;;;3.72;;
76850;SDS011;65824;43.726;20.692;2023-04-25T10:25:09;6.22;;;3.25;;
76850;SDS011;65824;43.726;20.692;2023-04-25T10:27:35;6.38;;;3.58;;
76850;SDS011;65824;43.726;20.692;2023-04-25T10:30:04;7.00;;;3.35;;
76850;SDS011;65824;43.726;20.692;2023-04-25T10:32:36;5.68;;;3.58;;
76850;SDS011;65824;43.726;20.692;2023-04-25T10:35:14;7.88;;;3.40;;
76850;SDS011;65824;43.726;20.692;2023-04-25T10:37:57;5.10;;;2.90;;
76850;SDS011;65824;43.726;20.692;2023-04-25T10:40:24;6.82;;;4.00;;
76850;SDS011;65824;43.726;20.692;2023-04-25T10:42:54;7.13;;;3.42;;
76850;SDS011;65824;43.726;20.692;2023-04-25T10:45:21;9.23;;;3.92;;
76850;SDS011;65824;43.726;20.692;2023-04-25T10:47:47;5.60;;;2.97;;
76850;SDS011;65824;43.726;20.692;2023-04-25T10:50:16;7.25;;;2.65;;
76850;SDS011;65824;43.726;20.692;2023-04-25T10:52:43;5.40;;;3.08;;
76850;SDS011;65824;43.726;20.692;2023-04-25T10:55:14;4.72;;;2.97;;
76850;SDS011;65824;43.726;20.692;2023-04-25T10:57:43;8.35;;;3.50;;
76850;SDS011;65824;43.726;20.692;2023-04-25T11:00:17;7.20;;;3.65;;
76850;SDS011;65824;43.726;20.692;2023-04-25T11:02:48;13.93;;;6.18;;
76850;SDS011;65824;43.726;20.692;2023-04-25T11:05:26;11.10;;;4.68;;
76850;SDS011;65824;43.726;20.692;2023-04-25T11:07:55;8.63;;;4.63;;
76850;SDS011;65824;43.726;20.692;2023-04-25T11:10:26;6.55;;;3.97;;
76850;SDS011;65824;43.726;20.692;2023-04-25T11:12:52;5.75;;;4.00;;
76850;SDS011;65824;43.726;20.692;2023-04-25T11:15:20;10.00;;;4.55;;
76850;SDS011;65824;43.726;20.692;2023-04-25T11:17:46;7.75;;;5.03;;
76850;SDS011;65824;43.726;20.692;2023-04-25T11:20:14;11.93;;;4.95;;
76850;SDS011;65824;43.726;20.692;2023-04-25T11:22:40;13.00;;;5.95;;
76850;SDS011;65824;43.726;20.692;2023-04-25T11:25:11;12.93;;;4.75;;
76850;SDS011;65824;43.726;20.692;2023-04-25T11:27:49;7.47;;;3.60;;
76850;SDS011;65824;43.726;20.692;2023-04-25T11:30:18;10.52;;;4.18;;
76850;SDS011;65824;43.726;20.692;2023-04-25T11:32:45;7.50;;;3.67;;
76850;SDS011;65824;43.726;20.692;2023-04-25T11:35:11;8.15;;;4.18;;
76850;SDS011;65824;43.726;20.692;2023-04-25T11:37:40;9.80;;;4.50;;
76850;SDS011;65824;43.726;20.692;2023-04-25T11:40:07;9.52;;;4.43;;
76850;SDS011;65824;43.726;20.692;2023-04-25T11:42:35;5.53;;;3.53;;
76850;SDS011;65824;43.726;20.692;2023-04-25T11:45:02;12.70;;;3.90;;
76850;SDS011;65824;43.726;20.692;2023-04-25T11:47:29;8.50;;;3.85;;
76850;SDS011;65824;43.726;20.692;2023-04-25T11:50:00;5.95;;;3.33;;
76850;SDS011;65824;43.726;20.692;2023-04-25T11:57:55;10.65;;;4.05;;
76850;SDS011;65824;43.726;20.692;2023-04-25T12:00:21;7.43;;;3.35;;
76850;SDS011;65824;43.726;20.692;2023-04-25T12:02:50;7.35;;;3.13;;
76850;SDS011;65824;43.726;20.692;2023-04-25T12:05:17;7.00;;;3.83;;
76850;SDS011;65824;43.726;20.692;2023-04-25T12:07:48;8.55;;;3.72;;
76850;SDS011;65824;43.726;20.692;2023-04-25T12:10:14;6.07;;;3.38;;
76850;SDS011;65824;43.726;20.692;2023-04-25T12:12:42;6.60;;;3.47;;
76850;SDS011;65824;43.726;20.692;2023-04-25T12:17:59;10.80;;;3.65;;
76850;SDS011;65824;43.726;20.692;2023-04-25T12:20:27;9.10;;;3.75;;
76850;SDS011;65824;43.726;20.692;2023-04-25T12:22:53;9.38;;;4.07;;
76850;SDS011;65824;43.726;20.692;2023-04-25T12:30:57;5.97;;;3.50;;
76850;SDS011;65824;43.726;20.692;2023-04-25T12:33:33;5.50;;;3.53;;
76850;SDS011;65824;43.726;20.692;2023-04-25T12:36:01;8.63;;;4.45;;
76850;SDS011;65824;43.726;20.692;2023-04-25T12:38:38;9.02;;;3.72;;
76850;SDS011;65824;43.726;20.692;2023-04-25T12:41:06;6.45;;;3.53;;
76850;SDS011;65824;43.726;20.692;2023-04-25T12:43:31;5.78;;;3.60;;
76850;SDS011;65824;43.726;20.692;2023-04-25T12:45:58;5.15;;;3.45;;
76850;SDS011;65824;43.726;20.692;2023-04-25T12:48:23;7.07;;;4.00;;
76850;SDS011;65824;43.726;20.692;2023-04-25T12:50:49;7.68;;;4.10;;
76850;SDS011;65824;43.726;20.692;2023-04-25T12:55:46;6.78;;;3.20;;
76850;SDS011;65824;43.726;20.692;2023-04-25T12:58:16;4.22;;;2.70;;
76850;SDS011;65824;43.726;20.692;2023-04-25T13:00:43;5.13;;;2.67;;
76850;SDS011;65824;43.726;20.692;2023-04-25T13:03:12;5.57;;;3.28;;
76850;SDS011;65824;43.726;20.692;2023-04-25T13:05:38;5.45;;;3.63;;
76850;SDS011;65824;43.726;20.692;2023-04-25T13:08:03;5.07;;;2.97;;
76850;SDS011;65824;43.726;20.692;2023-04-25T13:10:29;5.25;;;3.22;;
76850;SDS011;65824;43.726;20.692;2023-04-25T13:12:55;5.45;;;3.45;;
76850;SDS011;65824;43.726;20.692;2023-04-25T13:15:20;6.43;;;3.63;;
76850;SDS011;65824;43.726;20.692;2023-04-25T13:17:46;5.10;;;3.80;;
76850;SDS011;65824;43.726;20.692;2023-04-25T13:20:13;7.47;;;3.55;;
76850;SDS011;65824;43.726;20.692;2023-04-25T13:22:41;4.75;;;3.53;;
76850;SDS011;65824;43.726;20.692;2023-04-25T13:25:07;6.97;;;3.58;;
76850;SDS011;65824;43.726;20.692;2023-04-25T13:27:33;5.90;;;4.05;;
76850;SDS011;65824;43.726;20.692;2023-04-25T13:30:00;7.90;;;5.18;;
76850;SDS011;65824;43.726;20.692;2023-04-25T13:32:32;8.65;;;3.67;;
76850;SDS011;65824;43.726;20.692;2023-04-25T13:35:04;6.43;;;4.00;;
76850;SDS011;65824;43.726;20.692;2023-04-25T13:37:34;9.23;;;4.50;;
76850;SDS011;65824;43.726;20.692;2023-04-25T13:40:05;6.72;;;3.90;;
76850;SDS011;65824;43.726;20.692;2023-04-25T13:42:34;5.80;;;3.95;;
76850;SDS011;65824;43.726;20.692;2023-04-25T13:45:00;8.70;;;5.07;;
76850;SDS011;65824;43.726;20.692;2023-04-25T13:47:27;8.80;;;4.45;;
76850;SDS011;65824;43.726;20.692;2023-04-25T13:49:53;7.13;;;4.28;;
76850;SDS011;65824;43.726;20.692;2023-04-25T13:52:19;6.35;;;4.40;;
76850;SDS011;65824;43.726;20.692;2023-04-25T13:54:46;7.95;;;4.22;;
76850;SDS011;65824;43.726;20.692;2023-04-25T13:57:11;6.90;;;3.97;;
76850;SDS011;65824;43.726;20.692;2023-04-25T13:59:37;9.27;;;4.35;;
76850;SDS011;65824;43.726;20.692;2023-04-25T14:02:06;10.25;;;5.18;;
76850;SDS011;65824;43.726;20.692;2023-04-25T14:04:37;8.02;;;4.57;;
76850;SDS011;65824;43.726;20.692;2023-04-25T14:07:03;8.35;;;4.57;;
76850;SDS011;65824;43.726;20.692;2023-04-25T14:09:29;11.00;;;5.22;;
76850;SDS011;65824;43.726;20.692;2023-04-25T14:11:55;6.55;;;4.55;;
76850;SDS011;65824;43.726;20.692;2023-04-25T14:14:27;6.85;;;4.28;;
76850;SDS011;65824;43.726;20.692;2023-04-25T14:16:52;6.95;;;4.63;;
76850;SDS011;65824;43.726;20.692;2023-04-25T14:19:19;7.10;;;4.20;;
76850;SDS011;65824;43.726;20.692;2023-04-25T14:21:46;8.90;;;4.53;;
76850;SDS011;65824;43.726;20.692;2023-04-25T14:24:12;7.22;;;5.30;;
76850;SDS011;65824;43.726;20.692;2023-04-25T14:26:38;9.50;;;5.97;;
76850;SDS011;65824;43.726;20.692;2023-04-25T14:29:04;8.90;;;5.45;;
76850;SDS011;65824;43.726;20.692;2023-04-25T14:31:31;11.02;;;5.10;;
76850;SDS011;65824;43.726;20.692;2023-04-25T14:33:57;8.13;;;5.05;;
76850;SDS011;65824;43.726;20.692;2023-04-25T14:36:23;8.00;;;4.95;;
76850;SDS011;65824;43.726;20.692;2023-04-25T14:38:50;9.30;;;5.20;;
76850;SDS011;65824;43.726;20.692;2023-04-25T14:41:16;6.65;;;4.80;;
76850;SDS011;65824;43.726;20.692;2023-04-25T14:43:41;8.30;;;4.88;;
76850;SDS011;65824;43.726;20.692;2023-04-25T14:46:10;6.38;;;4.88;;
76850;SDS011;65824;43.726;20.692;2023-04-25T14:48:36;6.82;;;5.10;;
76850;SDS011;65824;43.726;20.692;2023-04-25T14:51:03;9.48;;;5.75;;